createdAt,value
2022-08-24T00:01:15.385Z,15.13
2022-08-24T00:03:43.880Z,15.12
2022-08-24T00:06:14.920Z,15.12
2022-08-24T00:08:43.360Z,15.12
2022-08-24T00:11:11.432Z,15.10
2022-08-24T00:13:40.943Z,15.09
2022-08-24T00:16:09.506Z,15.05
2022-08-24T00:18:37.736Z,15.00
2022-08-24T00:21:08.068Z,14.96
2022-08-24T00:23:36.305Z,14.91
2022-08-24T00:26:05.037Z,14.86
2022-08-24T00:28:33.269Z,14.82
2022-08-24T00:31:03.027Z,14.77
2022-08-24T00:33:33.502Z,14.71
2022-08-24T00:36:01.810Z,14.67
2022-08-24T00:38:30.572Z,14.60
2022-08-24T00:40:58.715Z,14.56
2022-08-24T00:43:26.910Z,14.52
2022-08-24T00:46:04.759Z,14.46
2022-08-24T00:48:33.719Z,14.42
2022-08-24T00:51:03.942Z,14.36
2022-08-24T00:53:33.682Z,14.28
2022-08-24T00:56:05.544Z,14.22
2022-08-24T00:58:36.137Z,14.18
2022-08-24T01:01:07.799Z,14.14
2022-08-24T01:03:36.069Z,14.09
2022-08-24T01:06:04.247Z,14.05
2022-08-24T01:08:32.573Z,14.01
2022-08-24T01:11:02.006Z,14.01
2022-08-24T01:13:30.407Z,13.97
2022-08-24T01:16:00.524Z,13.93
2022-08-24T01:18:48.220Z,13.91
2022-08-24T01:21:17.905Z,13.88
2022-08-24T01:23:48.196Z,13.86
2022-08-24T01:26:18.892Z,13.83
2022-08-24T01:28:48.461Z,13.78
2022-08-24T01:31:18.492Z,13.73
2022-08-24T01:33:49.736Z,13.72
2022-08-24T01:36:21.832Z,13.66
2022-08-24T01:38:58.885Z,13.64
2022-08-24T01:41:29.057Z,13.62
2022-08-24T01:43:59.027Z,13.63
2022-08-24T01:46:29.184Z,13.62
2022-08-24T01:48:58.095Z,13.61
2022-08-24T01:51:26.383Z,13.57
2022-08-24T01:53:54.562Z,13.56
2022-08-24T01:56:24.110Z,13.50
2022-08-24T01:58:54.066Z,13.46
2022-08-24T02:01:22.395Z,13.44
2022-08-24T02:03:51.750Z,13.38
2022-08-24T02:06:21.522Z,13.34
2022-08-24T02:08:49.607Z,13.29
2022-08-24T02:11:18.063Z,13.29
2022-08-24T02:13:47.597Z,13.25
2022-08-24T02:16:15.858Z,13.23
2022-08-24T02:18:44.215Z,13.21
2022-08-24T02:21:13.350Z,13.20
2022-08-24T02:23:42.351Z,13.17
2022-08-24T02:26:11.217Z,13.14
2022-08-24T02:28:39.375Z,13.12
2022-08-24T02:31:09.911Z,13.11
2022-08-24T02:33:39.113Z,13.12
2022-08-24T02:36:25.598Z,13.09
2022-08-24T02:38:55.680Z,13.04
2022-08-24T02:41:25.698Z,13.01
2022-08-24T02:43:54.391Z,13.00
2022-08-24T02:46:25.348Z,12.95
2022-08-24T02:48:56.457Z,12.92
2022-08-24T02:51:45.038Z,12.87
2022-08-24T02:54:18.546Z,12.84
2022-08-24T02:56:49.150Z,12.81
2022-08-24T02:59:17.621Z,12.79
2022-08-24T03:01:49.156Z,12.77
2022-08-24T03:04:18.892Z,12.74
2022-08-24T03:06:47.147Z,12.73
2022-08-24T03:09:15.508Z,12.69
2022-08-24T03:11:45.354Z,12.66
2022-08-24T03:14:14.569Z,12.63
2022-08-24T03:16:42.826Z,12.61
2022-08-24T03:19:12.653Z,12.60
2022-08-24T03:21:44.024Z,12.60
2022-08-24T03:24:13.096Z,12.56
2022-08-24T03:26:42.710Z,12.53
2022-08-24T03:29:13.373Z,12.48
2022-08-24T03:31:44.433Z,12.47
2022-08-24T03:34:14.254Z,12.44
2022-08-24T03:36:45.976Z,12.41
2022-08-24T03:39:15.377Z,12.38
2022-08-24T03:41:43.655Z,12.36
2022-08-24T03:44:11.817Z,12.35
2022-08-24T03:46:40.622Z,12.33
2022-08-24T03:49:10.030Z,12.29
2022-08-24T03:51:39.921Z,12.27
2022-08-24T03:54:13.189Z,12.27
2022-08-24T03:56:41.692Z,12.24
2022-08-24T03:59:10.502Z,12.22
2022-08-24T04:01:41.997Z,12.20
2022-08-24T04:04:10.626Z,12.19
2022-08-24T04:06:44.332Z,12.17
2022-08-24T04:09:12.855Z,12.14
2022-08-24T04:11:46.000Z,12.15
2022-08-24T04:14:26.985Z,12.17
2022-08-24T04:17:08.022Z,12.18
2022-08-24T04:19:57.549Z,12.25
2022-08-24T04:22:34.216Z,12.23
2022-08-24T04:25:09.027Z,12.19
2022-08-24T04:27:40.014Z,12.17
2022-08-24T04:30:10.268Z,12.15
2022-08-24T04:33:02.918Z,12.12
2022-08-24T04:35:31.891Z,12.11
2022-08-24T04:38:01.491Z,12.15
2022-08-24T04:40:30.624Z,12.17
2022-08-24T04:43:00.786Z,12.19
2022-08-24T04:45:29.258Z,12.20
2022-08-24T04:47:57.859Z,12.23
2022-08-24T04:50:28.094Z,12.26
2022-08-24T04:52:58.090Z,12.29
2022-08-24T04:55:28.389Z,12.33
2022-08-24T04:57:57.450Z,12.39
2022-08-24T05:00:27.419Z,12.44
2022-08-24T05:02:55.582Z,12.49
2022-08-24T05:05:24.587Z,12.53
2022-08-24T05:07:56.501Z,12.60
2022-08-24T05:10:24.841Z,12.68
2022-08-24T05:12:57.647Z,12.77
2022-08-24T05:15:25.886Z,12.82
2022-08-24T05:17:53.999Z,12.91
2022-08-24T05:20:22.834Z,12.98
2022-08-24T05:22:55.803Z,13.06
2022-08-24T05:25:25.019Z,13.14
2022-08-24T05:27:53.077Z,13.22
2022-08-24T05:30:22.968Z,13.31
2022-08-24T05:32:51.175Z,13.41
2022-08-24T05:35:19.844Z,13.52
2022-08-24T05:37:48.112Z,13.59
2022-08-24T05:40:18.194Z,13.65
2022-08-24T05:42:50.961Z,13.74
2022-08-24T05:45:19.261Z,13.83
2022-08-24T05:47:48.772Z,13.89
2022-08-24T05:50:39.943Z,13.97
2022-08-24T05:53:09.235Z,14.06
2022-08-24T05:55:40.951Z,14.16
2022-08-24T05:58:10.965Z,14.25
2022-08-24T06:00:41.354Z,14.39
2022-08-24T06:03:14.700Z,14.53
2022-08-24T06:05:49.065Z,14.69
2022-08-24T06:08:17.324Z,14.80
2022-08-24T06:10:47.719Z,14.94
2022-08-24T06:13:16.004Z,15.08
2022-08-24T06:15:54.961Z,15.21
2022-08-24T06:18:35.413Z,15.37
2022-08-24T06:21:07.434Z,15.52
2022-08-24T06:23:35.753Z,15.66
2022-08-24T06:26:23.305Z,15.79
2022-08-24T06:28:52.134Z,15.98
2022-08-24T06:31:22.317Z,16.14
2022-08-24T06:33:55.347Z,16.28
2022-08-24T06:36:23.708Z,16.43
2022-08-24T06:38:51.806Z,16.56
2022-08-24T06:41:20.683Z,16.71
2022-08-24T06:43:49.527Z,16.87
2022-08-24T06:46:20.883Z,17.05
2022-08-24T06:48:52.991Z,17.26
2022-08-24T06:51:23.512Z,17.40
2022-08-24T06:53:52.112Z,17.50
2022-08-24T06:56:20.363Z,17.69
2022-08-24T06:58:48.757Z,17.79
2022-08-24T07:01:22.548Z,17.95
2022-08-24T07:03:51.645Z,18.02
2022-08-24T07:06:41.088Z,18.18
2022-08-24T07:09:10.208Z,18.25
2022-08-24T07:11:38.768Z,18.27
2022-08-24T07:14:07.915Z,18.35
2022-08-24T07:16:37.412Z,18.37
2022-08-24T07:19:06.211Z,18.43
2022-08-24T07:21:34.402Z,18.50
2022-08-24T07:24:07.129Z,18.64
2022-08-24T07:26:39.704Z,18.74
2022-08-24T07:29:30.353Z,18.83
2022-08-24T07:31:58.538Z,19.00
2022-08-24T07:34:38.376Z,19.10
2022-08-24T07:37:08.204Z,19.30
2022-08-24T07:39:40.940Z,19.52
2022-08-24T07:42:15.868Z,19.65
2022-08-24T07:44:46.963Z,19.82
2022-08-24T07:47:37.029Z,20.06
2022-08-24T07:50:06.335Z,20.24
2022-08-24T07:52:34.824Z,20.35
2022-08-24T07:55:05.649Z,20.43
2022-08-24T07:57:39.517Z,20.65
2022-08-24T08:00:09.565Z,20.78
2022-08-24T08:02:46.541Z,20.79
2022-08-24T08:05:16.693Z,20.89
2022-08-24T08:07:52.056Z,21.03
2022-08-24T08:10:23.479Z,21.07
2022-08-24T08:12:53.555Z,21.17
2022-08-24T08:15:21.895Z,21.34
2022-08-24T08:18:02.824Z,21.45
2022-08-24T08:20:32.161Z,21.53
2022-08-24T08:23:18.040Z,21.65
2022-08-24T08:26:06.530Z,21.58
2022-08-24T08:29:01.063Z,21.75
2022-08-24T08:31:29.643Z,21.71
2022-08-24T08:34:02.853Z,21.80
2022-08-24T08:36:31.564Z,21.95
2022-08-24T08:39:00.210Z,22.02
2022-08-24T08:42:05.244Z,22.11
2022-08-24T08:44:52.271Z,22.39
2022-08-24T08:48:00.033Z,22.36
2022-08-24T08:50:32.852Z,22.52
2022-08-24T08:53:37.294Z,22.54
2022-08-24T08:56:11.620Z,22.57
2022-08-24T08:58:53.788Z,22.65
2022-08-24T09:01:35.294Z,22.44
2022-08-24T09:04:38.401Z,22.57
2022-08-24T09:07:16.815Z,22.34
2022-08-24T09:10:02.331Z,22.47
2022-08-24T09:12:38.299Z,22.63
2022-08-24T09:15:21.669Z,22.70
2022-08-24T09:17:58.866Z,22.60
2022-08-24T09:20:42.779Z,22.73
2022-08-24T09:23:15.683Z,23.13
2022-08-24T09:25:47.487Z,23.51
2022-08-24T09:28:22.839Z,23.89
2022-08-24T09:31:28.440Z,24.13
2022-08-24T09:34:08.523Z,24.04
2022-08-24T09:36:46.045Z,24.22
2022-08-24T09:39:24.827Z,24.26
2022-08-24T09:42:10.762Z,24.55
2022-08-24T09:45:05.832Z,24.86
2022-08-24T09:47:53.566Z,25.18
2022-08-24T09:51:03.208Z,25.31
2022-08-24T09:54:00.262Z,25.31
2022-08-24T09:56:38.836Z,25.80
2022-08-24T09:59:21.736Z,25.74
2022-08-24T10:01:54.194Z,25.69
2022-08-24T10:04:26.761Z,25.79
2022-08-24T10:07:00.999Z,25.90
2022-08-24T10:09:59.771Z,26.35
2022-08-24T10:12:36.087Z,26.53
2022-08-24T10:15:06.253Z,26.76
2022-08-24T10:17:44.031Z,26.93
2022-08-24T10:20:19.620Z,27.28
2022-08-24T10:23:12.467Z,27.46
2022-08-24T10:25:42.048Z,27.53
2022-08-24T10:28:56.830Z,28.12
2022-08-24T10:31:26.670Z,27.51
2022-08-24T10:34:02.042Z,27.79
2022-08-24T10:36:43.284Z,28.25
2022-08-24T10:39:40.358Z,28.22
2022-08-24T10:42:53.282Z,28.21
2022-08-24T10:45:56.383Z,28.15
2022-08-24T10:48:39.161Z,28.32
2022-08-24T10:51:11.135Z,27.83
2022-08-24T10:53:41.020Z,28.03
2022-08-24T10:56:12.519Z,27.61
2022-08-24T10:58:53.259Z,27.60
2022-08-24T11:01:26.668Z,28.09
2022-08-24T11:03:58.308Z,28.47
2022-08-24T11:06:28.149Z,28.22
2022-08-24T11:09:02.388Z,28.13
2022-08-24T11:11:33.967Z,28.12
2022-08-24T11:14:03.497Z,27.66
2022-08-24T11:16:35.219Z,27.37
2022-08-24T11:19:04.788Z,27.53
2022-08-24T11:21:48.966Z,27.61
2022-08-24T11:24:29.462Z,27.54
2022-08-24T11:27:00.395Z,27.20
2022-08-24T11:29:31.612Z,26.77
2022-08-24T11:32:00.204Z,26.54
2022-08-24T11:34:34.340Z,26.57
2022-08-24T11:37:02.483Z,26.38
2022-08-24T11:39:33.559Z,26.44
2022-08-24T11:42:09.300Z,26.73
2022-08-24T11:44:43.434Z,26.74
2022-08-24T11:47:30.629Z,26.48
2022-08-24T11:50:02.360Z,26.49
2022-08-24T11:52:37.729Z,26.64
2022-08-24T11:55:08.864Z,26.56
2022-08-24T11:57:47.419Z,26.76
2022-08-24T12:00:18.726Z,26.94
2022-08-24T12:02:52.768Z,26.90
2022-08-24T12:05:25.510Z,26.78
2022-08-24T12:08:00.900Z,26.70
2022-08-24T12:10:33.004Z,26.88
2022-08-24T12:13:05.921Z,26.71
2022-08-24T12:15:49.958Z,26.56
2022-08-24T12:18:25.705Z,26.54
2022-08-24T12:20:53.809Z,26.52
2022-08-24T12:23:25.397Z,26.32
2022-08-24T12:26:05.238Z,26.12
2022-08-24T12:28:37.718Z,26.05
2022-08-24T12:31:11.294Z,25.91
2022-08-24T12:33:39.428Z,25.82
2022-08-24T12:36:12.240Z,25.65
2022-08-24T12:38:42.210Z,25.74
2022-08-24T12:41:19.313Z,25.31
2022-08-24T12:43:50.705Z,25.17
2022-08-24T12:46:22.112Z,25.20
2022-08-24T12:48:55.117Z,25.28
2022-08-24T12:51:25.946Z,25.39
2022-08-24T12:54:05.077Z,25.37
2022-08-24T12:56:41.895Z,25.54
2022-08-24T12:59:18.481Z,25.57
2022-08-24T13:01:47.758Z,25.66
2022-08-24T13:04:19.646Z,25.62
2022-08-24T13:06:51.160Z,25.59
2022-08-24T13:09:30.905Z,25.34
2022-08-24T13:12:00.893Z,25.50
2022-08-24T13:14:30.634Z,25.58
2022-08-24T13:17:13.898Z,25.34
2022-08-24T13:19:43.907Z,24.96
2022-08-24T13:22:40.214Z,24.93
2022-08-24T13:25:47.331Z,25.04
2022-08-24T13:28:44.203Z,25.00
2022-08-24T13:31:26.499Z,25.07
2022-08-24T13:33:57.196Z,25.19
2022-08-24T13:36:55.966Z,25.12
2022-08-24T13:39:58.254Z,24.99
2022-08-24T13:42:58.213Z,24.84
2022-08-24T13:45:28.212Z,24.90
2022-08-24T13:48:21.432Z,24.97
2022-08-24T13:51:01.246Z,24.95
2022-08-24T13:53:44.542Z,24.95
2022-08-24T13:56:22.622Z,25.14
2022-08-24T13:59:02.737Z,25.34
2022-08-24T14:01:37.505Z,25.37
2022-08-24T14:04:11.263Z,25.30
2022-08-24T14:06:40.835Z,25.13
2022-08-24T14:09:36.118Z,24.80
2022-08-24T14:12:18.141Z,24.63
2022-08-24T14:14:59.395Z,24.58
2022-08-24T14:17:49.445Z,24.62
2022-08-24T14:21:09.845Z,24.89
2022-08-24T14:23:52.841Z,24.94
2022-08-24T14:26:58.166Z,24.71
2022-08-24T14:29:34.923Z,24.64
2022-08-24T14:32:33.135Z,24.83
2022-08-24T14:35:18.516Z,25.19
2022-08-24T14:37:59.915Z,25.29
2022-08-24T14:40:37.037Z,25.31
2022-08-24T14:43:16.395Z,25.51
2022-08-24T14:45:49.156Z,25.62
2022-08-24T14:48:28.788Z,25.75
2022-08-24T14:51:00.153Z,25.93
2022-08-24T14:53:47.425Z,26.11
2022-08-24T14:56:25.103Z,26.23
2022-08-24T14:58:58.321Z,26.18
2022-08-24T15:01:42.180Z,25.93
2022-08-24T15:04:27.504Z,25.91
2022-08-24T15:07:26.598Z,26.02
2022-08-24T15:09:55.798Z,26.12
2022-08-24T15:12:34.806Z,26.04
2022-08-24T15:15:06.158Z,25.98
2022-08-24T15:17:41.220Z,25.80
2022-08-24T15:20:10.720Z,25.68
2022-08-24T15:22:43.950Z,25.63
2022-08-24T15:25:14.912Z,25.64
2022-08-24T15:27:51.260Z,25.64
2022-08-24T15:30:21.867Z,25.65
2022-08-24T15:32:53.157Z,25.46
2022-08-24T15:35:26.768Z,25.42
2022-08-24T15:37:55.028Z,25.38
2022-08-24T15:40:27.025Z,25.16
2022-08-24T15:42:56.992Z,24.97
2022-08-24T15:45:26.240Z,24.58
2022-08-24T15:47:54.640Z,24.40
2022-08-24T15:50:25.518Z,24.27
2022-08-24T15:52:59.311Z,24.22
2022-08-24T15:55:31.915Z,24.23
2022-08-24T15:58:13.846Z,24.22
2022-08-24T16:00:59.191Z,24.31
2022-08-24T16:03:29.697Z,24.22
2022-08-24T16:05:57.952Z,24.14
2022-08-24T16:08:26.085Z,24.14
2022-08-24T16:10:55.266Z,24.09
2022-08-24T16:13:29.494Z,23.91
2022-08-24T16:16:03.766Z,23.72
2022-08-24T16:18:46.184Z,23.62
2022-08-24T16:21:16.378Z,23.59
2022-08-24T16:23:45.481Z,23.43
2022-08-24T16:26:21.877Z,23.32
2022-08-24T16:28:51.768Z,23.25
2022-08-24T16:31:47.588Z,23.17
2022-08-24T16:34:24.360Z,23.08
2022-08-24T16:36:52.710Z,23.01
2022-08-24T16:39:21.226Z,22.98
2022-08-24T16:41:50.102Z,22.97
2022-08-24T16:44:19.782Z,22.93
2022-08-24T16:46:54.157Z,22.91
2022-08-24T16:49:22.341Z,22.82
2022-08-24T16:51:50.507Z,22.78
2022-08-24T16:54:19.104Z,22.74
2022-08-24T16:56:47.233Z,22.74
2022-08-24T16:59:16.932Z,22.69
2022-08-24T17:01:48.629Z,22.64
2022-08-24T17:04:16.758Z,22.59
2022-08-24T17:06:48.052Z,22.58
2022-08-24T17:09:17.613Z,22.57
2022-08-24T17:11:47.084Z,22.51
2022-08-24T17:14:15.237Z,22.47
2022-08-24T17:16:43.539Z,22.44
2022-08-24T17:19:15.396Z,22.36
2022-08-24T17:21:45.637Z,22.30
2022-08-24T17:24:13.895Z,22.21
2022-08-24T17:26:44.963Z,22.14
2022-08-24T17:29:18.570Z,22.07
2022-08-24T17:31:49.742Z,22.00
2022-08-24T17:34:21.282Z,21.97
2022-08-24T17:36:49.748Z,21.91
2022-08-24T17:39:17.826Z,21.85
2022-08-24T17:41:45.955Z,21.78
2022-08-24T17:44:16.588Z,21.75
2022-08-24T17:46:44.974Z,21.70
2022-08-24T17:49:13.450Z,21.62
2022-08-24T17:51:42.961Z,21.54
2022-08-24T17:54:11.169Z,21.47
2022-08-24T17:56:41.110Z,21.41
2022-08-24T17:59:23.627Z,21.34
2022-08-24T18:01:52.534Z,21.27
2022-08-24T18:04:21.520Z,21.21
2022-08-24T18:06:51.527Z,21.10
2022-08-24T18:09:28.803Z,21.02
2022-08-24T18:11:57.767Z,20.96
2022-08-24T18:14:26.320Z,20.94
2022-08-24T18:16:57.111Z,20.87
2022-08-24T18:19:26.454Z,20.75
2022-08-24T18:21:55.915Z,20.68
2022-08-24T18:24:25.009Z,20.56
2022-08-24T18:26:53.152Z,20.49
2022-08-24T18:29:22.092Z,20.41
2022-08-24T18:31:50.450Z,20.32
2022-08-24T18:34:21.032Z,20.25
2022-08-24T18:36:49.191Z,20.15
2022-08-24T18:39:18.742Z,20.06
2022-08-24T18:41:49.243Z,19.98
2022-08-24T18:44:18.396Z,19.90
2022-08-24T18:46:47.819Z,19.83
2022-08-24T18:49:16.201Z,19.78
2022-08-24T18:51:44.468Z,19.71
2022-08-24T18:54:14.155Z,19.62
2022-08-24T18:56:44.330Z,19.53
2022-08-24T18:59:13.935Z,19.46
2022-08-24T19:01:55.955Z,19.39
2022-08-24T19:04:25.849Z,19.32
2022-08-24T19:07:01.005Z,19.23
2022-08-24T19:09:33.991Z,19.16
2022-08-24T19:12:04.227Z,19.11
2022-08-24T19:14:32.726Z,19.06
2022-08-24T19:17:00.809Z,19.00
2022-08-24T19:19:28.944Z,18.96
2022-08-24T19:21:57.392Z,18.93
2022-08-24T19:24:26.864Z,18.86
2022-08-24T19:26:55.193Z,18.81
2022-08-24T19:29:54.030Z,18.77
2022-08-24T19:32:24.210Z,18.71
2022-08-24T19:34:52.566Z,18.67
2022-08-24T19:37:20.827Z,18.63
2022-08-24T19:39:50.902Z,18.58
2022-08-24T19:42:19.176Z,18.52
2022-08-24T19:45:20.940Z,18.48
2022-08-24T19:47:49.120Z,18.41
2022-08-24T19:50:21.250Z,18.36
2022-08-24T19:52:49.859Z,18.30
2022-08-24T19:55:18.028Z,18.29
2022-08-24T19:57:49.693Z,18.30
2022-08-24T20:00:28.206Z,18.26
2022-08-24T20:02:57.825Z,18.26
2022-08-24T20:05:27.826Z,18.23
2022-08-24T20:07:56.311Z,18.18
2022-08-24T20:10:24.606Z,18.13
2022-08-24T20:12:53.306Z,18.10
2022-08-24T20:15:22.239Z,18.04
2022-08-24T20:17:51.798Z,17.99
2022-08-24T20:20:21.835Z,17.92
2022-08-24T20:22:49.942Z,17.89
2022-08-24T20:25:18.669Z,17.83
2022-08-24T20:27:47.575Z,17.79
2022-08-24T20:30:17.787Z,17.74
2022-08-24T20:32:47.923Z,17.71
2022-08-24T20:35:17.887Z,17.67
2022-08-24T20:37:46.234Z,17.63
2022-08-24T20:40:15.987Z,17.59
2022-08-24T20:42:44.589Z,17.53
2022-08-24T20:45:13.999Z,17.47
2022-08-24T20:47:44.997Z,17.43
2022-08-24T20:50:13.316Z,17.44
2022-08-24T20:52:43.255Z,17.40
2022-08-24T20:55:12.468Z,17.33
2022-08-24T20:57:41.306Z,17.27
2022-08-24T21:00:11.158Z,17.21
2022-08-24T21:02:39.588Z,17.14
2022-08-24T21:05:08.542Z,17.10
2022-08-24T21:07:36.633Z,17.01
2022-08-24T21:10:07.716Z,16.96
2022-08-24T21:12:35.898Z,16.91
2022-08-24T21:15:04.026Z,16.89
2022-08-24T21:17:32.236Z,16.86
2022-08-24T21:20:00.253Z,16.83
2022-08-24T21:22:28.692Z,16.81
2022-08-24T21:24:56.745Z,16.78
2022-08-24T21:27:26.321Z,16.74
2022-08-24T21:29:54.464Z,16.67
2022-08-24T21:32:39.875Z,16.65
2022-08-24T21:35:08.659Z,16.63
2022-08-24T21:37:40.325Z,16.61
2022-08-24T21:40:09.906Z,16.58
2022-08-24T21:42:39.582Z,16.56
2022-08-24T21:45:09.229Z,16.51
2022-08-24T21:47:37.421Z,16.46
2022-08-24T21:50:06.535Z,16.46
2022-08-24T21:52:34.640Z,16.48
2022-08-24T21:55:02.785Z,16.45
2022-08-24T21:57:30.959Z,16.43
2022-08-24T22:00:00.521Z,16.41
2022-08-24T22:02:29.615Z,16.40
2022-08-24T22:04:58.059Z,16.39
2022-08-24T22:07:26.227Z,16.36
2022-08-24T22:09:54.391Z,16.36
2022-08-24T22:12:22.578Z,16.31
2022-08-24T22:14:50.798Z,16.29
2022-08-24T22:17:20.600Z,16.29
2022-08-24T22:19:48.730Z,16.32
2022-08-24T22:22:17.086Z,16.31
2022-08-24T22:24:45.215Z,16.27
2022-08-24T22:27:13.333Z,16.23
2022-08-24T22:29:41.411Z,16.19
2022-08-24T22:32:09.751Z,16.17
2022-08-24T22:34:39.231Z,16.17
2022-08-24T22:37:07.375Z,16.12
2022-08-24T22:39:36.711Z,16.10
2022-08-24T22:42:04.918Z,16.09
2022-08-24T22:44:33.808Z,16.08
2022-08-24T22:47:03.564Z,16.07
2022-08-24T22:49:37.269Z,16.08
2022-08-24T22:52:07.269Z,16.08
2022-08-24T22:54:35.604Z,16.09
2022-08-24T22:57:03.706Z,16.10
2022-08-24T22:59:35.029Z,16.09
2022-08-24T23:02:03.614Z,16.09
2022-08-24T23:04:33.564Z,16.11
2022-08-24T23:07:02.045Z,16.20
2022-08-24T23:09:36.646Z,16.29
2022-08-24T23:12:13.676Z,16.31
2022-08-24T23:14:41.774Z,16.36
2022-08-24T23:17:09.920Z,16.36
2022-08-24T23:19:55.541Z,16.41
2022-08-24T23:22:23.644Z,16.43
2022-08-24T23:24:55.632Z,16.44
2022-08-24T23:27:23.740Z,16.43
2022-08-24T23:29:51.807Z,16.45
2022-08-24T23:32:20.020Z,16.45
2022-08-24T23:34:48.266Z,16.43
2022-08-24T23:37:16.646Z,16.40
2022-08-24T23:39:45.156Z,16.36
2022-08-24T23:42:14.703Z,16.30
2022-08-24T23:44:42.836Z,16.25
2022-08-24T23:47:10.928Z,16.21
2022-08-24T23:49:39.787Z,16.16
2022-08-24T23:52:08.178Z,16.12
2022-08-24T23:54:36.397Z,16.07
2022-08-24T23:57:08.625Z,16.03
2022-08-24T23:59:38.147Z,15.98
